• Join FlightAware (Why Join?)
  • Login
  • US Flag 
02:32AM EDT


 

Airport Tracker/Info


-or-


 

Live Flight TrackerFlight Track Log ✈ KAP29 ✈ 07-Jun-2013 ✈ KBOS - KSLK

Flight Track Log - Related Links

Times and Time Zones

All times are in EDT time to prevent confusion due to time zone crossing. See the KAP29 flight status page for this flight to view local times or setup timezone preferences in your user account.

Time Position Orientation Groundspeed Altitude Reporting Facility
EDT Latitude Longitude Course Direction KTS MPH feet Rate Location/Type
01:30PM 42.3667 -71.0000 340° North 106 122 300  Level KA90
01:31PM 42.4000 -71.0167 340° North 128 147 1,200 960 Climbing KA90
01:32PM 42.4333 -71.0333 340° North 150 173 2,100 960 Climbing KA90
01:33PM 42.4833 -71.0667 334° Northwest 159 183 3,200 840 Climbing KA90
01:34PM 42.5167 -71.0833 340° North 156 180 3,800 600 Climbing KA90
01:35PM 42.5500 -71.1167 324° Northwest 153 176 4,400 540 Climbing KA90
01:36PM 42.6000 -71.1500 334° Northwest 153 176 5,000 480 Climbing KA90
01:37PM 42.6333 -71.1833 324° Northwest 152 175 5,500 480 Climbing KA90
01:38PM 42.6667 -71.2167 324° Northwest 154 177 6,000 540 Climbing KA90
01:39PM 42.7000 -71.2333 340° North 157 181 6,600 540 Climbing KA90
01:40PM 42.7333 -71.2667 324° Northwest 152 175 7,100 420 Climbing KA90
01:41PM 42.7667 -71.3167 312° West 156 180 7,500 480 Climbing KA90
01:42PM 42.8000 -71.3667 312° West 156 180 8,100 240 Climbing KA90
01:43PM 42.8333 -71.4000 324° Northwest 172 198 8,000 -60 Descending KA90
01:44PM 42.8667 -71.4500 312° West 179 206 8,000  Level KA90
01:45PM 42.9000 -71.5000 312° West 183 211 8,000  Level KA90
01:46PM 42.9333 -71.5500 312° West 185 213 8,000  Level KA90
01:47PM 42.9514 -71.5806 309° West 183 211 8,000  Level Boston Center
01:48PM 42.9831 -71.6256 314° West 197 227 8,000  Level Boston Center
01:49PM 43.0147 -71.6678 316° Northwest 190 219 8,000  Level Boston Center
01:50PM 43.0525 -71.7242 313° West 185 213 8,000  Level Boston Center
01:51PM 43.0819 -71.7636 316° Northwest 180 207 8,000  Level Boston Center
01:52PM 43.1197 -71.8172 314° West 180 207 8,000  Level Boston Center
01:53PM 43.1514 -71.8594 316° Northwest 180 207 8,000  Level Boston Center
01:54PM 43.1869 -71.9133 312° West 180 207 8,000  Level Boston Center
01:55PM 43.2183 -71.9558 315° West 180 207 8,000  Level Boston Center
01:56PM 43.2561 -72.0097 314° West 180 207 8,000  Level Boston Center
01:57PM 43.2856 -72.0522 314° West 180 207 8,000  Level Boston Center
01:58PM 43.3231 -72.1061 314° West 175 201 8,000  Level Boston Center
01:59PM 43.3544 -72.1489 315° West 175 201 8,000  Level Boston Center
02:00PM 43.3900 -72.2000 314° West 175 201 8,000  Level Boston Center
02:01PM 43.4256 -72.2514 314° West 170 196 8,000  Level Boston Center
02:02PM 43.4589 -72.2969 315° West 170 196 8,000  Level Boston Center
02:03PM 43.4925 -72.3456 314° West 170 196 8,000  Level Boston Center
02:04PM 43.5258 -72.3942 313° West 170 196 8,000  Level Boston Center
02:05PM 43.5592 -72.4431 313° West 170 196 8,000  Level Boston Center
02:06PM 43.5925 -72.4889 315° West 170 196 8,000  Level Boston Center
02:07PM 43.6236 -72.5347 313° West 170 196 8,000 240 Level Boston Center
02:08PM 43.6550 -72.5808 313° West 170 196 8,500 480 Climbing Boston Center
02:09PM 43.6839 -72.6211 315° West 164 189 9,000 300 Climbing Boston Center
02:10PM 43.7089 -72.6556 315° West 158 182 9,100  Climbing Boston Center
02:11PM 43.7358 -72.7017 309° West 164 189 9,100  Level Boston Center
02:12PM 43.7753 -72.7622 312° West 172 198 9,100  Level Boston Center
02:13PM 43.8128 -72.8083 318° Northwest 177 204 9,100  Level Boston Center
02:14PM 43.8417 -72.8544 311° West 177 204 9,100  Level Boston Center
02:15PM 43.8750 -72.9008 315° West 171 197 9,100  Level Boston Center
02:16PM 43.9061 -72.9472 313° West 171 197 9,100  Level Boston Center
02:17PM 43.9369 -72.9936 313° West 164 189 9,100  Level Boston Center
02:18PM 43.9639 -73.0342 313° West 164 189 9,100  Level Boston Center
02:19PM 43.9928 -73.0778 313° West 159 183 9,100  Level Boston Center
02:20PM 44.0322 -73.1331 315° West 159 183 9,100  Level Boston Center
02:21PM 44.0611 -73.1767 313° West 159 183 9,100  Level Boston Center
02:22PM 44.0961 -73.2264 314° West 159 183 9,100  Level Boston Center
02:23PM 44.1269 -73.2731 313° West 159 183 9,100  Level Boston Center
02:24PM 44.1600 -73.3197 315° West 159 183 9,100  Level Boston Center
02:25PM 44.1950 -73.3725 313° West 164 189 9,100  Level Boston Center
02:26PM 44.2300 -73.4250 313° West 169 194 9,100  Level Boston Center
02:27PM 44.2567 -73.4661 312° West 169 194 9,100  Level Boston Center
02:28PM 44.2897 -73.5103 316° Northwest 169 194 9,100  Level Boston Center
02:29PM 44.3183 -73.5542 312° West 164 189 9,100 -120 Level Boston Center
02:30PM 44.3492 -73.6042 311° West 164 189 8,900 -300 Descending Boston Center
02:31PM 44.3819 -73.6514 314° West 164 189 8,500 -420 Descending Boston Center
02:32PM 44.4147 -73.7014 313° West 169 194 8,100 -540 Descending Boston Center
02:33PM 44.4539 -73.7606 313° West 184 212 7,500 -600 Descending Boston Center
02:34PM 44.4886 -73.8136 313° West 191 220 6,900 -660 Descending Boston Center
02:35PM 44.5275 -73.8669 316° Northwest 191 220 6,200 -600 Descending Boston Center
02:36PM 44.5517 -73.9317 298° West 191 220 5,800 -360 Descending Boston Center
02:37PM 44.5653 -73.9989 286° West 185 213 5,500 -420 Descending Boston Center
02:38PM 44.5397 -74.0506 235° Southwest 148 170 5,000 -720 Descending Boston Center
02:39PM 44.5058 -74.0875 218° Southwest 148 170 4,100 -600 Descending Boston Center
02:40PM 44.4783 -74.1189 219° Southwest 143 165 3,900 -420 Descending Boston Center
02:41PM 44.4486 -74.1442 211° Southwest 143 165 3,300 -600 Descending Boston Center
02:42PM 44.4256 -74.1667 215° Southwest 127 146 2,800 -420 Descending Boston Center
02:43PM 44.3981 -74.1981 219° Southwest 127 146 2,500 -300 Descending Boston Center
02:45PM 44.3833 -74.2000 237° Southwest  Level FlightAware Approximate
02:52PM 44.3853 -74.2062 237° Southwest  Level Estimated
02:53PM 44.3833 -74.2000 237° Southwest  Level FlightAware Approximate
02:54PM 44.3853 -74.2062 237° Southwest  Level Estimated
02:55PM 44.3833 -74.2000 237° Southwest  Level FlightAware Approximate
02:56PM 44.3853 -74.2062 237° Southwest  Level Estimated
02:57PM 44.3833 -74.2000 237° Southwest  Level FlightAware Approximate
02:58PM 44.3853 -74.2062 237° Southwest  Level Estimated
02:59PM 44.3833 -74.2000 237° Southwest  Level FlightAware Approximate
03:00PM 44.3853 -74.2062 237° Southwest  Level Estimated